sensor_id;sensor_type;location;lat;lon;timestamp;temperature;humidity
53520;DHT22;39397;53.204;5.778;2023-05-07T00:00:54;13.90;99.90
53520;DHT22;39397;53.204;5.778;2023-05-07T00:03:20;13.70;99.90
53520;DHT22;39397;53.204;5.778;2023-05-07T00:05:46;13.80;99.90
53520;DHT22;39397;53.204;5.778;2023-05-07T00:08:13;13.80;99.90
53520;DHT22;39397;53.204;5.778;2023-05-07T00:10:39;13.80;99.90
53520;DHT22;39397;53.204;5.778;2023-05-07T00:13:05;13.70;99.90
53520;DHT22;39397;53.204;5.778;2023-05-07T00:15:30;13.80;99.90
53520;DHT22;39397;53.204;5.778;2023-05-07T00:17:56;13.90;99.90
53520;DHT22;39397;53.204;5.778;2023-05-07T00:20:23;13.80;99.90
53520;DHT22;39397;53.204;5.778;2023-05-07T00:22:49;13.80;99.90
53520;DHT22;39397;53.204;5.778;2023-05-07T00:25:15;13.70;99.90
53520;DHT22;39397;53.204;5.778;2023-05-07T00:27:41;13.60;99.90
53520;DHT22;39397;53.204;5.778;2023-05-07T00:30:09;13.70;99.90
53520;DHT22;39397;53.204;5.778;2023-05-07T00:32:35;13.70;99.90
53520;DHT22;39397;53.204;5.778;2023-05-07T00:35:02;13.70;99.90
53520;DHT22;39397;53.204;5.778;2023-05-07T00:37:27;13.70;99.90
53520;DHT22;39397;53.204;5.778;2023-05-07T00:39:53;13.60;99.90
53520;DHT22;39397;53.204;5.778;2023-05-07T00:42:19;13.70;99.90
53520;DHT22;39397;53.204;5.778;2023-05-07T00:44:45;13.70;99.90
53520;DHT22;39397;53.204;5.778;2023-05-07T00:47:11;13.70;99.90
53520;DHT22;39397;53.204;5.778;2023-05-07T00:49:39;13.60;99.90
53520;DHT22;39397;53.204;5.778;2023-05-07T00:52:13;13.60;99.90
53520;DHT22;39397;53.204;5.778;2023-05-07T00:54:41;13.60;99.90
53520;DHT22;39397;53.204;5.778;2023-05-07T00:57:07;13.60;99.90
53520;DHT22;39397;53.204;5.778;2023-05-07T00:59:34;11.80;99.90
53520;DHT22;39397;53.204;5.778;2023-05-07T01:02:00;13.60;99.90
53520;DHT22;39397;53.204;5.778;2023-05-07T01:04:26;13.60;99.90
53520;DHT22;39397;53.204;5.778;2023-05-07T01:06:56;13.60;99.90
53520;DHT22;39397;53.204;5.778;2023-05-07T01:09:26;13.70;99.90
53520;DHT22;39397;53.204;5.778;2023-05-07T01:11:52;13.70;99.90
53520;DHT22;39397;53.204;5.778;2023-05-07T01:14:19;13.50;99.90
53520;DHT22;39397;53.204;5.778;2023-05-07T01:16:49;14.00;99.90
53520;DHT22;39397;53.204;5.778;2023-05-07T01:19:18;15.20;99.90
53520;DHT22;39397;53.204;5.778;2023-05-07T01:21:46;13.50;99.90
53520;DHT22;39397;53.204;5.778;2023-05-07T01:24:12;13.50;99.90
53520;DHT22;39397;53.204;5.778;2023-05-07T01:26:39;13.50;99.90
53520;DHT22;39397;53.204;5.778;2023-05-07T01:29:05;13.90;99.90
53520;DHT22;39397;53.204;5.778;2023-05-07T01:31:34;13.80;99.90
53520;DHT22;39397;53.204;5.778;2023-05-07T01:34:01;13.70;99.90
53520;DHT22;39397;53.204;5.778;2023-05-07T01:36:29;13.50;99.90
53520;DHT22;39397;53.204;5.778;2023-05-07T01:38:57;13.40;99.90
53520;DHT22;39397;53.204;5.778;2023-05-07T01:41:24;13.50;99.90
53520;DHT22;39397;53.204;5.778;2023-05-07T01:43:51;13.40;99.90
53520;DHT22;39397;53.204;5.778;2023-05-07T01:46:18;13.40;99.90
53520;DHT22;39397;53.204;5.778;2023-05-07T01:48:45;13.40;99.90
53520;DHT22;39397;53.204;5.778;2023-05-07T01:51:12;13.40;99.90
53520;DHT22;39397;53.204;5.778;2023-05-07T01:53:38;13.40;99.90
53520;DHT22;39397;53.204;5.778;2023-05-07T01:56:06;13.30;99.90
53520;DHT22;39397;53.204;5.778;2023-05-07T01:58:39;13.60;99.90
53520;DHT22;39397;53.204;5.778;2023-05-07T02:01:08;13.30;99.90
53520;DHT22;39397;53.204;5.778;2023-05-07T02:03:35;13.30;99.90
53520;DHT22;39397;53.204;5.778;2023-05-07T02:06:01;13.60;99.90
53520;DHT22;39397;53.204;5.778;2023-05-07T02:08:27;13.30;99.90
53520;DHT22;39397;53.204;5.778;2023-05-07T02:10:52;13.30;99.90
53520;DHT22;39397;53.204;5.778;2023-05-07T02:13:19;13.30;99.90
53520;DHT22;39397;53.204;5.778;2023-05-07T02:15:45;13.20;99.90
53520;DHT22;39397;53.204;5.778;2023-05-07T02:18:16;13.20;99.90
53520;DHT22;39397;53.204;5.778;2023-05-07T02:20:42;13.20;99.90
53520;DHT22;39397;53.204;5.778;2023-05-07T02:23:08;13.20;99.90
53520;DHT22;39397;53.204;5.778;2023-05-07T02:25:33;13.20;99.90
53520;DHT22;39397;53.204;5.778;2023-05-07T02:27:59;13.20;99.90
53520;DHT22;39397;53.204;5.778;2023-05-07T02:30:25;13.10;99.90
53520;DHT22;39397;53.204;5.778;2023-05-07T02:32:51;13.20;99.90
53520;DHT22;39397;53.204;5.778;2023-05-07T02:35:17;13.10;99.90
53520;DHT22;39397;53.204;5.778;2023-05-07T02:37:43;13.20;99.90
53520;DHT22;39397;53.204;5.778;2023-05-07T02:40:09;12.90;99.90
53520;DHT22;39397;53.204;5.778;2023-05-07T02:42:35;13.00;99.90
53520;DHT22;39397;53.204;5.778;2023-05-07T02:45:01;13.10;99.90
53520;DHT22;39397;53.204;5.778;2023-05-07T02:47:26;13.00;99.90
53520;DHT22;39397;53.204;5.778;2023-05-07T02:49:54;13.10;99.90
53520;DHT22;39397;53.204;5.778;2023-05-07T02:52:20;13.10;99.90
53520;DHT22;39397;53.204;5.778;2023-05-07T02:54:46;12.90;99.90
53520;DHT22;39397;53.204;5.778;2023-05-07T02:57:11;10.70;99.90
53520;DHT22;39397;53.204;5.778;2023-05-07T02:59:37;13.00;99.90
53520;DHT22;39397;53.204;5.778;2023-05-07T03:02:03;13.00;99.90
53520;DHT22;39397;53.204;5.778;2023-05-07T03:04:29;13.00;99.90
53520;DHT22;39397;53.204;5.778;2023-05-07T03:06:54;12.90;99.90
53520;DHT22;39397;53.204;5.778;2023-05-07T03:09:20;12.80;99.90
53520;DHT22;39397;53.204;5.778;2023-05-07T03:11:46;12.90;99.90
53520;DHT22;39397;53.204;5.778;2023-05-07T03:14:12;12.50;99.90
53520;DHT22;39397;53.204;5.778;2023-05-07T03:16:38;13.00;99.90
53520;DHT22;39397;53.204;5.778;2023-05-07T03:19:03;12.90;99.90
53520;DHT22;39397;53.204;5.778;2023-05-07T03:21:29;12.80;99.90
53520;DHT22;39397;53.204;5.778;2023-05-07T03:23:56;12.80;99.90
53520;DHT22;39397;53.204;5.778;2023-05-07T03:26:22;12.80;99.90
53520;DHT22;39397;53.204;5.778;2023-05-07T03:28:47;12.70;99.90
53520;DHT22;39397;53.204;5.778;2023-05-07T03:31:13;12.70;99.90
53520;DHT22;39397;53.204;5.778;2023-05-07T03:33:56;12.70;99.90
53520;DHT22;39397;53.204;5.778;2023-05-07T03:36:22;12.80;99.90
53520;DHT22;39397;53.204;5.778;2023-05-07T03:38:49;12.70;99.90
53520;DHT22;39397;53.204;5.778;2023-05-07T03:41:15;12.70;99.90
53520;DHT22;39397;53.204;5.778;2023-05-07T03:43:41;12.60;99.90
53520;DHT22;39397;53.204;5.778;2023-05-07T03:46:07;12.60;99.90
53520;DHT22;39397;53.204;5.778;2023-05-07T03:48:32;13.30;99.90
53520;DHT22;39397;53.204;5.778;2023-05-07T03:50:59;12.60;99.90
53520;DHT22;39397;53.204;5.778;2023-05-07T03:53:24;12.50;99.90
53520;DHT22;39397;53.204;5.778;2023-05-07T03:55:50;12.40;99.90
53520;DHT22;39397;53.204;5.778;2023-05-07T03:58:16;12.50;99.90
53520;DHT22;39397;53.204;5.778;2023-05-07T04:00:42;12.40;99.90
53520;DHT22;39397;53.204;5.778;2023-05-07T04:03:08;12.40;99.90
53520;DHT22;39397;53.204;5.778;2023-05-07T04:05:34;12.40;99.90
53520;DHT22;39397;53.204;5.778;2023-05-07T04:08:00;12.30;99.90
53520;DHT22;39397;53.204;5.778;2023-05-07T04:10:26;12.30;99.90
53520;DHT22;39397;53.204;5.778;2023-05-07T04:12:53;12.40;99.90
53520;DHT22;39397;53.204;5.778;2023-05-07T04:15:19;12.30;99.90
53520;DHT22;39397;53.204;5.778;2023-05-07T04:17:45;12.30;99.90
53520;DHT22;39397;53.204;5.778;2023-05-07T04:20:15;12.20;99.90
53520;DHT22;39397;53.204;5.778;2023-05-07T04:22:42;12.20;99.90
53520;DHT22;39397;53.204;5.778;2023-05-07T04:25:08;12.20;99.90
53520;DHT22;39397;53.204;5.778;2023-05-07T04:27:37;12.20;99.90
53520;DHT22;39397;53.204;5.778;2023-05-07T04:30:03;12.10;99.90
53520;DHT22;39397;53.204;5.778;2023-05-07T04:32:29;12.10;99.90
53520;DHT22;39397;53.204;5.778;2023-05-07T04:34:56;12.20;99.90
53520;DHT22;39397;53.204;5.778;2023-05-07T04:37:22;12.10;99.90
53520;DHT22;39397;53.204;5.778;2023-05-07T04:39:50;12.20;99.90
53520;DHT22;39397;53.204;5.778;2023-05-07T04:42:17;12.10;99.90
53520;DHT22;39397;53.204;5.778;2023-05-07T04:44:44;12.10;99.90
53520;DHT22;39397;53.204;5.778;2023-05-07T04:47:10;12.10;99.90
53520;DHT22;39397;53.204;5.778;2023-05-07T04:49:36;12.20;99.90
53520;DHT22;39397;53.204;5.778;2023-05-07T04:52:02;12.10;99.90
53520;DHT22;39397;53.204;5.778;2023-05-07T04:54:29;11.90;99.90
53520;DHT22;39397;53.204;5.778;2023-05-07T04:56:55;12.20;99.90
53520;DHT22;39397;53.204;5.778;2023-05-07T04:59:20;12.20;99.90
53520;DHT22;39397;53.204;5.778;2023-05-07T05:01:46;12.30;99.90
53520;DHT22;39397;53.204;5.778;2023-05-07T05:04:12;12.30;99.90
53520;DHT22;39397;53.204;5.778;2023-05-07T05:06:38;12.50;99.90
53520;DHT22;39397;53.204;5.778;2023-05-07T05:09:04;12.30;99.90
53520;DHT22;39397;53.204;5.778;2023-05-07T05:11:31;12.30;99.90
53520;DHT22;39397;53.204;5.778;2023-05-07T05:13:58;12.30;99.90
53520;DHT22;39397;53.204;5.778;2023-05-07T05:16:24;12.60;99.90
53520;DHT22;39397;53.204;5.778;2023-05-07T05:18:50;12.40;99.90
53520;DHT22;39397;53.204;5.778;2023-05-07T05:21:17;12.40;99.90
53520;DHT22;39397;53.204;5.778;2023-05-07T05:23:43;12.40;99.90
53520;DHT22;39397;53.204;5.778;2023-05-07T05:26:09;12.40;99.90
53520;DHT22;39397;53.204;5.778;2023-05-07T05:28:34;12.40;99.90
53520;DHT22;39397;53.204;5.778;2023-05-07T05:31:00;12.50;99.90
53520;DHT22;39397;53.204;5.778;2023-05-07T05:33:26;12.30;99.90
53520;DHT22;39397;53.204;5.778;2023-05-07T05:35:53;12.40;99.90
53520;DHT22;39397;53.204;5.778;2023-05-07T05:38:18;12.30;99.90
53520;DHT22;39397;53.204;5.778;2023-05-07T05:40:44;12.20;99.90
53520;DHT22;39397;53.204;5.778;2023-05-07T05:43:10;12.40;99.90
53520;DHT22;39397;53.204;5.778;2023-05-07T05:45:35;12.30;99.90
53520;DHT22;39397;53.204;5.778;2023-05-07T05:48:01;12.40;99.90
53520;DHT22;39397;53.204;5.778;2023-05-07T05:50:27;12.30;99.90
53520;DHT22;39397;53.204;5.778;2023-05-07T05:52:52;12.40;99.90
53520;DHT22;39397;53.204;5.778;2023-05-07T05:55:18;12.40;99.90
53520;DHT22;39397;53.204;5.778;2023-05-07T05:57:45;12.40;99.90
53520;DHT22;39397;53.204;5.778;2023-05-07T06:00:11;12.40;99.90
53520;DHT22;39397;53.204;5.778;2023-05-07T06:02:37;12.50;99.90
53520;DHT22;39397;53.204;5.778;2023-05-07T06:05:03;12.40;99.90
53520;DHT22;39397;53.204;5.778;2023-05-07T06:07:29;12.50;99.90
53520;DHT22;39397;53.204;5.778;2023-05-07T06:09:55;12.60;99.90
53520;DHT22;39397;53.204;5.778;2023-05-07T06:12:21;12.50;99.90
53520;DHT22;39397;53.204;5.778;2023-05-07T06:14:47;11.90;99.90
53520;DHT22;39397;53.204;5.778;2023-05-07T06:17:13;12.50;99.90
53520;DHT22;39397;53.204;5.778;2023-05-07T06:19:38;12.50;99.90
53520;DHT22;39397;53.204;5.778;2023-05-07T06:22:04;12.60;99.90
53520;DHT22;39397;53.204;5.778;2023-05-07T06:24:30;12.70;99.90
53520;DHT22;39397;53.204;5.778;2023-05-07T06:26:55;12.70;99.90
53520;DHT22;39397;53.204;5.778;2023-05-07T06:29:21;12.80;99.90
53520;DHT22;39397;53.204;5.778;2023-05-07T06:31:47;12.90;99.90
53520;DHT22;39397;53.204;5.778;2023-05-07T06:34:12;13.00;99.90
53520;DHT22;39397;53.204;5.778;2023-05-07T06:36:42;13.00;99.90
53520;DHT22;39397;53.204;5.778;2023-05-07T06:39:08;13.00;99.90
53520;DHT22;39397;53.204;5.778;2023-05-07T06:41:34;13.20;99.90
53520;DHT22;39397;53.204;5.778;2023-05-07T06:44:01;13.20;99.90
53520;DHT22;39397;53.204;5.778;2023-05-07T06:46:30;13.30;99.90
53520;DHT22;39397;53.204;5.778;2023-05-07T06:48:56;13.40;99.90
53520;DHT22;39397;53.204;5.778;2023-05-07T06:51:22;13.40;99.90
53520;DHT22;39397;53.204;5.778;2023-05-07T06:53:48;13.60;99.90
53520;DHT22;39397;53.204;5.778;2023-05-07T06:56:14;13.70;99.90
53520;DHT22;39397;53.204;5.778;2023-05-07T06:58:39;13.70;99.90
53520;DHT22;39397;53.204;5.778;2023-05-07T07:01:05;13.80;99.90
53520;DHT22;39397;53.204;5.778;2023-05-07T07:03:31;13.80;99.90
53520;DHT22;39397;53.204;5.778;2023-05-07T07:05:57;14.00;99.90
53520;DHT22;39397;53.204;5.778;2023-05-07T07:08:22;14.10;99.90
53520;DHT22;39397;53.204;5.778;2023-05-07T07:10:48;14.00;99.90
53520;DHT22;39397;53.204;5.778;2023-05-07T07:13:14;14.10;99.90
53520;DHT22;39397;53.204;5.778;2023-05-07T07:15:40;14.10;99.90
53520;DHT22;39397;53.204;5.778;2023-05-07T07:18:06;14.10;99.90
53520;DHT22;39397;53.204;5.778;2023-05-07T07:20:32;14.00;99.90
53520;DHT22;39397;53.204;5.778;2023-05-07T07:22:58;14.10;99.90
53520;DHT22;39397;53.204;5.778;2023-05-07T07:25:23;14.20;99.90
53520;DHT22;39397;53.204;5.778;2023-05-07T07:27:49;14.30;99.90
53520;DHT22;39397;53.204;5.778;2023-05-07T07:30:15;14.40;99.90
53520;DHT22;39397;53.204;5.778;2023-05-07T07:32:41;14.40;99.90
53520;DHT22;39397;53.204;5.778;2023-05-07T07:35:07;14.50;99.90
53520;DHT22;39397;53.204;5.778;2023-05-07T07:37:33;14.60;99.90
53520;DHT22;39397;53.204;5.778;2023-05-07T07:40:00;14.70;99.90
53520;DHT22;39397;53.204;5.778;2023-05-07T07:42:25;14.60;99.90
53520;DHT22;39397;53.204;5.778;2023-05-07T07:44:51;14.80;99.90
53520;DHT22;39397;53.204;5.778;2023-05-07T07:47:17;14.90;99.90
53520;DHT22;39397;53.204;5.778;2023-05-07T07:49:43;14.90;99.90
53520;DHT22;39397;53.204;5.778;2023-05-07T07:52:08;14.90;99.90
53520;DHT22;39397;53.204;5.778;2023-05-07T07:54:34;15.00;99.90
53520;DHT22;39397;53.204;5.778;2023-05-07T07:57:00;15.00;99.90
53520;DHT22;39397;53.204;5.778;2023-05-07T07:59:26;15.10;99.90
53520;DHT22;39397;53.204;5.778;2023-05-07T08:01:55;15.00;99.90
53520;DHT22;39397;53.204;5.778;2023-05-07T08:04:22;15.20;99.90
53520;DHT22;39397;53.204;5.778;2023-05-07T08:06:48;15.30;99.90
53520;DHT22;39397;53.204;5.778;2023-05-07T08:09:13;15.40;99.90
53520;DHT22;39397;53.204;5.778;2023-05-07T08:11:39;15.50;99.90
53520;DHT22;39397;53.204;5.778;2023-05-07T08:14:05;15.70;99.90
53520;DHT22;39397;53.204;5.778;2023-05-07T08:16:31;15.70;99.90
53520;DHT22;39397;53.204;5.778;2023-05-07T08:18:57;15.80;99.90
53520;DHT22;39397;53.204;5.778;2023-05-07T08:21:23;15.90;99.90
53520;DHT22;39397;53.204;5.778;2023-05-07T08:23:49;16.00;99.90
53520;DHT22;39397;53.204;5.778;2023-05-07T08:26:14;16.10;99.90
53520;DHT22;39397;53.204;5.778;2023-05-07T08:28:40;16.20;99.90
53520;DHT22;39397;53.204;5.778;2023-05-07T08:31:06;16.20;99.90
53520;DHT22;39397;53.204;5.778;2023-05-07T08:33:31;16.30;99.90
53520;DHT22;39397;53.204;5.778;2023-05-07T08:35:57;16.30;99.90
53520;DHT22;39397;53.204;5.778;2023-05-07T08:38:23;16.30;99.90
53520;DHT22;39397;53.204;5.778;2023-05-07T08:40:49;16.30;99.90
53520;DHT22;39397;53.204;5.778;2023-05-07T08:43:15;16.40;99.90
53520;DHT22;39397;53.204;5.778;2023-05-07T08:45:41;16.50;99.90
53520;DHT22;39397;53.204;5.778;2023-05-07T08:48:15;16.60;99.90
53520;DHT22;39397;53.204;5.778;2023-05-07T08:50:40;16.80;99.90
53520;DHT22;39397;53.204;5.778;2023-05-07T08:53:06;17.00;99.90
53520;DHT22;39397;53.204;5.778;2023-05-07T08:55:32;16.90;99.90
53520;DHT22;39397;53.204;5.778;2023-05-07T08:57:59;16.90;99.90
53520;DHT22;39397;53.204;5.778;2023-05-07T09:00:25;17.00;99.90
53520;DHT22;39397;53.204;5.778;2023-05-07T09:02:52;17.00;99.90
53520;DHT22;39397;53.204;5.778;2023-05-07T09:05:19;17.10;99.90
53520;DHT22;39397;53.204;5.778;2023-05-07T09:07:45;17.00;99.90
53520;DHT22;39397;53.204;5.778;2023-05-07T09:10:12;17.00;99.90
53520;DHT22;39397;53.204;5.778;2023-05-07T09:12:39;17.10;99.90
53520;DHT22;39397;53.204;5.778;2023-05-07T09:15:06;17.20;99.90
53520;DHT22;39397;53.204;5.778;2023-05-07T09:17:32;17.40;99.90
53520;DHT22;39397;53.204;5.778;2023-05-07T09:20:05;17.70;99.90
53520;DHT22;39397;53.204;5.778;2023-05-07T09:22:36;17.90;99.90
53520;DHT22;39397;53.204;5.778;2023-05-07T09:25:02;18.00;99.90
53520;DHT22;39397;53.204;5.778;2023-05-07T09:27:28;18.10;99.90
53520;DHT22;39397;53.204;5.778;2023-05-07T09:29:54;18.30;99.90
53520;DHT22;39397;53.204;5.778;2023-05-07T09:32:19;18.30;99.90
53520;DHT22;39397;53.204;5.778;2023-05-07T09:34:45;18.50;99.90
53520;DHT22;39397;53.204;5.778;2023-05-07T09:37:13;18.50;99.90
53520;DHT22;39397;53.204;5.778;2023-05-07T09:39:44;18.50;99.90
53520;DHT22;39397;53.204;5.778;2023-05-07T09:42:10;18.50;99.90
53520;DHT22;39397;53.204;5.778;2023-05-07T09:44:37;18.50;99.90
53520;DHT22;39397;53.204;5.778;2023-05-07T09:47:06;18.40;99.90
53520;DHT22;39397;53.204;5.778;2023-05-07T09:49:39;18.10;99.90
53520;DHT22;39397;53.204;5.778;2023-05-07T09:52:07;18.30;99.90
53520;DHT22;39397;53.204;5.778;2023-05-07T09:54:36;18.00;99.90
53520;DHT22;39397;53.204;5.778;2023-05-07T09:57:04;18.00;99.90
53520;DHT22;39397;53.204;5.778;2023-05-07T09:59:34;18.00;99.90
53520;DHT22;39397;53.204;5.778;2023-05-07T10:02:01;18.60;99.90
53520;DHT22;39397;53.204;5.778;2023-05-07T10:04:28;18.20;99.90
53520;DHT22;39397;53.204;5.778;2023-05-07T10:06:54;18.20;99.90
53520;DHT22;39397;53.204;5.778;2023-05-07T10:09:21;18.40;99.90
53520;DHT22;39397;53.204;5.778;2023-05-07T10:11:49;18.40;99.90
53520;DHT22;39397;53.204;5.778;2023-05-07T10:14:15;18.50;99.90
53520;DHT22;39397;53.204;5.778;2023-05-07T10:16:41;18.60;99.90
53520;DHT22;39397;53.204;5.778;2023-05-07T10:19:08;18.60;99.90
53520;DHT22;39397;53.204;5.778;2023-05-07T10:21:37;18.70;99.90
53520;DHT22;39397;53.204;5.778;2023-05-07T10:24:22;18.90;99.90
53520;DHT22;39397;53.204;5.778;2023-05-07T10:26:51;18.90;99.90
53520;DHT22;39397;53.204;5.778;2023-05-07T10:34:34;18.90;99.90
53520;DHT22;39397;53.204;5.778;2023-05-07T10:37:02;18.90;99.90
53520;DHT22;39397;53.204;5.778;2023-05-07T10:39:28;18.90;99.90
53520;DHT22;39397;53.204;5.778;2023-05-07T10:41:55;19.00;99.90
53520;DHT22;39397;53.204;5.778;2023-05-07T10:44:29;19.10;99.90
53520;DHT22;39397;53.204;5.778;2023-05-07T10:49:31;19.30;99.90
53520;DHT22;39397;53.204;5.778;2023-05-07T10:52:19;19.40;99.90
53520;DHT22;39397;53.204;5.778;2023-05-07T10:54:45;19.20;99.90
53520;DHT22;39397;53.204;5.778;2023-05-07T10:57:34;19.10;99.90
53520;DHT22;39397;53.204;5.778;2023-05-07T11:05:31;19.10;99.90
53520;DHT22;39397;53.204;5.778;2023-05-07T11:07:58;19.10;99.90
53520;DHT22;39397;53.204;5.778;2023-05-07T11:10:53;19.60;99.90
53520;DHT22;39397;53.204;5.778;2023-05-07T11:13:43;19.30;99.90
53520;DHT22;39397;53.204;5.778;2023-05-07T11:16:20;19.40;99.90
53520;DHT22;39397;53.204;5.778;2023-05-07T11:18:48;18.00;99.90
53520;DHT22;39397;53.204;5.778;2023-05-07T11:21:47;19.20;99.90
53520;DHT22;39397;53.204;5.778;2023-05-07T11:24:14;19.20;99.90
53520;DHT22;39397;53.204;5.778;2023-05-07T11:26:43;19.20;99.90
53520;DHT22;39397;53.204;5.778;2023-05-07T11:29:19;19.30;99.90
53520;DHT22;39397;53.204;5.778;2023-05-07T11:31:52;19.30;99.90
53520;DHT22;39397;53.204;5.778;2023-05-07T11:34:26;19.30;99.90
53520;DHT22;39397;53.204;5.778;2023-05-07T11:36:52;19.40;99.90
53520;DHT22;39397;53.204;5.778;2023-05-07T11:39:33;19.40;99.90
53520;DHT22;39397;53.204;5.778;2023-05-07T11:42:01;19.60;99.90
53520;DHT22;39397;53.204;5.778;2023-05-07T11:44:43;19.60;99.90
53520;DHT22;39397;53.204;5.778;2023-05-07T11:47:10;19.80;99.90
53520;DHT22;39397;53.204;5.778;2023-05-07T11:49:36;19.90;99.90
53520;DHT22;39397;53.204;5.778;2023-05-07T11:52:02;19.90;99.90
53520;DHT22;39397;53.204;5.778;2023-05-07T11:54:35;19.90;99.90
53520;DHT22;39397;53.204;5.778;2023-05-07T11:57:02;20.00;99.90
53520;DHT22;39397;53.204;5.778;2023-05-07T11:59:27;20.20;99.90
53520;DHT22;39397;53.204;5.778;2023-05-07T12:01:57;20.40;99.90
53520;DHT22;39397;53.204;5.778;2023-05-07T12:04:23;20.40;99.90
53520;DHT22;39397;53.204;5.778;2023-05-07T12:06:48;20.40;99.90
53520;DHT22;39397;53.204;5.778;2023-05-07T12:09:16;20.60;99.90
53520;DHT22;39397;53.204;5.778;2023-05-07T12:11:45;20.70;99.90
53520;DHT22;39397;53.204;5.778;2023-05-07T12:14:11;20.70;99.90
53520;DHT22;39397;53.204;5.778;2023-05-07T12:16:38;20.70;99.90
53520;DHT22;39397;53.204;5.778;2023-05-07T12:19:05;20.90;99.90
53520;DHT22;39397;53.204;5.778;2023-05-07T12:21:34;21.00;99.90
53520;DHT22;39397;53.204;5.778;2023-05-07T12:24:01;21.10;99.90
53520;DHT22;39397;53.204;5.778;2023-05-07T12:26:27;21.20;99.90
53520;DHT22;39397;53.204;5.778;2023-05-07T12:28:52;21.60;99.90
53520;DHT22;39397;53.204;5.778;2023-05-07T12:31:18;21.20;99.90
53520;DHT22;39397;53.204;5.778;2023-05-07T12:33:44;21.30;99.90
53520;DHT22;39397;53.204;5.778;2023-05-07T12:36:12;21.40;99.90
53520;DHT22;39397;53.204;5.778;2023-05-07T12:38:39;21.40;99.90
53520;DHT22;39397;53.204;5.778;2023-05-07T12:41:07;21.40;99.90
53520;DHT22;39397;53.204;5.778;2023-05-07T12:43:34;21.50;99.90
53520;DHT22;39397;53.204;5.778;2023-05-07T12:46:02;21.60;99.90
53520;DHT22;39397;53.204;5.778;2023-05-07T12:48:28;21.60;99.90
53520;DHT22;39397;53.204;5.778;2023-05-07T12:50:55;21.80;99.90
53520;DHT22;39397;53.204;5.778;2023-05-07T12:53:23;21.80;99.90
53520;DHT22;39397;53.204;5.778;2023-05-07T12:55:51;21.90;99.90
53520;DHT22;39397;53.204;5.778;2023-05-07T12:58:19;21.90;99.90
53520;DHT22;39397;53.204;5.778;2023-05-07T13:00:48;21.80;99.90
53520;DHT22;39397;53.204;5.778;2023-05-07T13:03:25;21.80;99.90
53520;DHT22;39397;53.204;5.778;2023-05-07T13:05:52;21.70;99.90
53520;DHT22;39397;53.204;5.778;2023-05-07T13:08:44;21.60;99.90
53520;DHT22;39397;53.204;5.778;2023-05-07T13:11:10;21.70;99.90
53520;DHT22;39397;53.204;5.778;2023-05-07T13:13:38;21.80;99.90
53520;DHT22;39397;53.204;5.778;2023-05-07T13:16:05;21.70;99.90
53520;DHT22;39397;53.204;5.778;2023-05-07T13:18:32;21.90;99.90
53520;DHT22;39397;53.204;5.778;2023-05-07T13:20:58;21.90;99.90
53520;DHT22;39397;53.204;5.778;2023-05-07T13:23:24;21.90;99.90
53520;DHT22;39397;53.204;5.778;2023-05-07T13:25:50;22.00;99.90
53520;DHT22;39397;53.204;5.778;2023-05-07T13:28:16;21.90;99.90
53520;DHT22;39397;53.204;5.778;2023-05-07T13:30:42;22.20;99.90
53520;DHT22;39397;53.204;5.778;2023-05-07T13:33:08;22.20;99.90
53520;DHT22;39397;53.204;5.778;2023-05-07T13:35:34;22.50;99.90
53520;DHT22;39397;53.204;5.778;2023-05-07T13:38:00;22.40;99.90
53520;DHT22;39397;53.204;5.778;2023-05-07T13:40:26;22.50;99.90
53520;DHT22;39397;53.204;5.778;2023-05-07T13:42:54;22.90;99.90
53520;DHT22;39397;53.204;5.778;2023-05-07T13:45:19;22.80;99.90
53520;DHT22;39397;53.204;5.778;2023-05-07T13:47:46;22.90;99.90
53520;DHT22;39397;53.204;5.778;2023-05-07T13:50:12;23.10;99.90
53520;DHT22;39397;53.204;5.778;2023-05-07T13:52:42;23.10;99.90
53520;DHT22;39397;53.204;5.778;2023-05-07T13:55:09;23.00;99.90
53520;DHT22;39397;53.204;5.778;2023-05-07T13:57:36;22.90;99.90
53520;DHT22;39397;53.204;5.778;2023-05-07T14:00:03;22.80;99.90
53520;DHT22;39397;53.204;5.778;2023-05-07T14:02:31;22.80;99.90
53520;DHT22;39397;53.204;5.778;2023-05-07T14:04:56;22.80;99.90
53520;DHT22;39397;53.204;5.778;2023-05-07T14:07:22;22.90;99.90
53520;DHT22;39397;53.204;5.778;2023-05-07T14:09:49;22.80;99.90
53520;DHT22;39397;53.204;5.778;2023-05-07T14:12:15;22.90;99.90
53520;DHT22;39397;53.204;5.778;2023-05-07T14:14:40;23.20;99.90
53520;DHT22;39397;53.204;5.778;2023-05-07T14:17:06;23.40;99.90
53520;DHT22;39397;53.204;5.778;2023-05-07T14:19:33;23.40;99.90
53520;DHT22;39397;53.204;5.778;2023-05-07T14:21:59;23.50;99.90
53520;DHT22;39397;53.204;5.778;2023-05-07T14:24:25;23.50;99.90
53520;DHT22;39397;53.204;5.778;2023-05-07T14:26:51;23.70;99.90
53520;DHT22;39397;53.204;5.778;2023-05-07T14:29:17;23.70;99.90
53520;DHT22;39397;53.204;5.778;2023-05-07T14:31:44;23.50;99.90
53520;DHT22;39397;53.204;5.778;2023-05-07T14:34:11;23.60;99.90
53520;DHT22;39397;53.204;5.778;2023-05-07T14:36:36;23.50;99.90
53520;DHT22;39397;53.204;5.778;2023-05-07T14:39:03;23.60;99.90
53520;DHT22;39397;53.204;5.778;2023-05-07T14:41:29;23.50;99.90
53520;DHT22;39397;53.204;5.778;2023-05-07T14:43:55;25.10;99.90
53520;DHT22;39397;53.204;5.778;2023-05-07T14:46:21;23.30;99.90
53520;DHT22;39397;53.204;5.778;2023-05-07T14:48:47;23.40;99.90
53520;DHT22;39397;53.204;5.778;2023-05-07T14:51:13;23.30;99.90
53520;DHT22;39397;53.204;5.778;2023-05-07T14:53:41;23.20;99.90
53520;DHT22;39397;53.204;5.778;2023-05-07T14:56:07;23.20;99.90
53520;DHT22;39397;53.204;5.778;2023-05-07T14:58:33;23.10;99.90
53520;DHT22;39397;53.204;5.778;2023-05-07T15:00:59;23.10;99.90
53520;DHT22;39397;53.204;5.778;2023-05-07T15:03:25;22.90;99.90
53520;DHT22;39397;53.204;5.778;2023-05-07T15:05:51;22.90;99.90
53520;DHT22;39397;53.204;5.778;2023-05-07T15:08:17;23.00;99.90
53520;DHT22;39397;53.204;5.778;2023-05-07T15:10:43;23.00;99.90
53520;DHT22;39397;53.204;5.778;2023-05-07T15:13:13;22.90;99.90
53520;DHT22;39397;53.204;5.778;2023-05-07T15:15:39;23.20;99.90
53520;DHT22;39397;53.204;5.778;2023-05-07T15:18:05;23.20;99.90
53520;DHT22;39397;53.204;5.778;2023-05-07T15:20:31;23.30;99.90
53520;DHT22;39397;53.204;5.778;2023-05-07T15:22:57;23.20;99.80
53520;DHT22;39397;53.204;5.778;2023-05-07T15:25:23;23.40;99.90
53520;DHT22;39397;53.204;5.778;2023-05-07T15:27:49;23.30;99.10
53520;DHT22;39397;53.204;5.778;2023-05-07T15:30:15;23.50;98.80
53520;DHT22;39397;53.204;5.778;2023-05-07T15:32:42;23.50;98.80
53520;DHT22;39397;53.204;5.778;2023-05-07T15:35:08;23.40;98.50
53520;DHT22;39397;53.204;5.778;2023-05-07T15:37:34;23.30;98.40
53520;DHT22;39397;53.204;5.778;2023-05-07T15:40:00;23.30;99.00
53520;DHT22;39397;53.204;5.778;2023-05-07T15:42:28;23.10;98.80